Dale, Indiana
Current Conditions -  °F | °C
As of 10:35 PM on Monday 22 Dec 2014 (Local Time) from KHNB Reporting Station
Overcast Overcast  
Wind Chill: 52°   Ceiling: 800
Heat Index: 52°   Visibility: 5mi
Dew Point: 46°   Wind: 9mph
Humidity: 82%   Direction: 170°S
Pressure: 29.67"   Gusts: NA
Location:  38.17°N, 86.99°W
Report Text: KHNB 230435Z AUTO 17008KT 5SM OVC008 11/08 A2967 RMK AO1 P0001
Loading
Personal Weather Stations






























Interactive Weather Map New forecast layout! Learn more

10-Day Weather Forecast

Advertisements
Track Severe Weather on mobile